Details From SBMN - Ponta Pelada
To SVMI - Caracas Simon Bolivar Intl
Flight Number -
Tags Generated
Created
Modified
Stats Distance 926 nm / 1,715 km
Max Altitude 0 ft / 0 m
Waypoints 4
Social Downloads 1
Likes 0
Share VATSIM

Download

Looking for another format? Having issues loading an existing format? Contact us
Advertisement - Login to hide

Notes

Generated

Route

SBMN LENOS R1536 SVMI

ID Type Via Altitude Latitude Longitude Leg Dist Tot Dist Heading (true) Name
O SBMN APT - 0 ft / 0 m -3.14857˚ -59.99644˚ - 0 nm - -
LENOS FIX - 0 ft / 0 m 9.21975˚ -66.09867˚ 827 nm 827 nm 334° / 334° -
R1536 FIX - 0 ft / 0 m 10.59869˚ -66.99768˚ 98 nm 926 nm 327° / 327° -
O SVMI APT - 0 ft / 0 m 10.59869˚ -66.99768˚ 0 nm 926 nm 0° / 180° -

Altitude Profile

Advertisement - Login to hide

Weather


0- 5 10 15 20 25 30 35+ Temperature / ° C

Clouds and Precipitation
Forecast for 2017-12-13 12:00 UTC. Updated 2 hours ago

Ground ~20,000 ft ~40,000 ft Winds

SBMN

Details ICAO SBMN
Name PONTA PELADA
Region Brazil
Timezone America/Manaus (UTC-4.0)
Stats Elevation 267 ft / 81 m (AMSL)
Location -3.146042° -59.986302°
Runways 1
Magnetic Variation 15.795° W

METAR

SBMN 130900Z 31004KT 9999 SCT0010 BKN100 24/23 Q1010

Decode

TAF

TAF SBMN 130400Z 1306/1406 32002KT 9999 SCT010 TN25/1307Z TX33/1318Z PROB30 TEMPO 1306/1309 5000 TSRA SCT010 FEW025CB BECMG 1313/1315 13005KT SCT015 BECMG 1316/1318 5000 TSRA SCT020 FEW025CB BECMG 1319/1321 09005KT 9999 SCT020 BECMG 1322/1324 15005KT CAVOK RMK PCQ

Decode

Departure Runways

ID Width Length Bearing (true) Bearing (mag) Surface Threshold Offset Overrun Length
09 148 ft / 45 m 7,616 ft / 2,321 m 76.00° 91.80° Asphalt 295 ft / 90 m 0 ft / 0 m
27 148 ft / 45 m 7,616 ft / 2,321 m 256.00° 271.80° Asphalt 325 ft / 99 m 0 ft / 0 m

SVMI

Details ICAO SVMI (CCS)
Name Caracas Simon Bolivar Intl
Region Venezuela
Timezone America/Caracas (UTC-4.0)
Stats Elevation 235 ft / 72 m (AMSL)
Location 10.603119° -66.990585°
Runways 2
Magnetic Variation 12.288° W

METAR

SVMI 130900Z 00000KT 9999 FEW016 23/19 Q1011

Decode

TAF

Not found

Destination Runways

ID Width Length Bearing (true) Bearing (mag) Surface Threshold Offset Overrun Length
09 145 ft / 44 m 9,825 ft / 2,995 m 75.92° 88.21° Asphalt 0 ft / 0 m 0 ft / 0 m
10 148 ft / 45 m 11,472 ft / 3,497 m 88.14° 100.43° Asphalt 0 ft / 0 m 200 ft / 61 m
27 145 ft / 44 m 9,825 ft / 2,995 m 255.92° 268.21° Asphalt 0 ft / 0 m 0 ft / 0 m
28 148 ft / 45 m 11,472 ft / 3,497 m 268.15° 280.44° Asphalt 0 ft / 0 m 200 ft / 61 m

Approach Navaids

Runway Type Ident Frequency Range Bearing (true) Bearing (mag) Slope Elevation
10 Localiser IMIQ 110.10 MHz 18 nm / 33 km 87.90° 100.19° - 235 ft / 72 m (AMSL)
10 Glidescope IMIQ 110.10 MHz 10 nm / 19 km 88.14° 100.43° 3.00° 235 ft / 72 m (AMSL)
10 DME IMIQ 110.10 MHz 18 nm / 33 km - - - 235 ft / 72 m (AMSL)